Alderson, West Virginia
Current Conditions -  °F | °C
As of 10:55 PM on Sunday 23 Nov 2014 (Local Time) from KLWB Reporting Station
Overcast Overcast  
Wind Chill: 55°   Ceiling: 2300
Heat Index: 55°   Visibility: 10mi
Dew Point: 50°   Wind: 12mph
Humidity: 83%   Direction: 160°SSE
Pressure: 29.67"   Gusts: 16mph
Location:  37.73°N, 80.64°W
Report Text: KLWB 240355Z AUTO 16010G14KT 10SM SCT018 BKN023 OVC036 13/10 A2967 RMK AO2 LTG DSNT S P0002 T01300101
Loading
Personal Weather Stations






























Interactive Weather Map New forecast layout! Learn more

10-Day Weather Forecast

Advertisements
Track Severe Weather on mobile